Time,TemperatureF,DewpointF,PressureIn,WindDirection,WindDirectionDegrees,WindSpeedMPH,WindSpeedGustMPH,Humidity,HourlyPrecipIn,Conditions,Clouds,dailyrainin,SoftwareType,DateUTC
2013-07-31 00:01:00,65.8,64.9,30.16,SE,141,0.0,0.0,97,0.00,,,0.00,meteohub,2013-07-31 04:01:00,
2013-07-31 00:02:00,65.8,64.9,30.16,SE,141,0.0,0.0,97,0.00,,,0.00,meteohub,2013-07-31 04:02:00,
2013-07-31 00:03:00,65.8,64.9,30.16,SE,141,0.0,0.0,97,0.00,,,0.00,meteohub,2013-07-31 04:03:00,
2013-07-31 00:08:00,65.8,64.9,30.16,SE,140,0.0,0.0,97,0.00,,,0.00,meteohub,2013-07-31 04:08:00,
2013-07-31 00:13:00,65.8,64.9,30.16,SE,143,0.0,0.0,97,0.00,,,0.00,meteohub,2013-07-31 04:13:00,
2013-07-31 00:18:00,65.7,64.8,30.16,SE,143,0.0,0.0,97,0.00,,,0.00,meteohub,2013-07-31 04:18:00,
2013-07-31 00:23:00,65.7,64.8,30.16,SE,143,0.0,0.0,97,0.00,,,0.00,meteohub,2013-07-31 04:23:00,
2013-07-31 00:28:00,65.5,64.6,30.15,SE,143,0.0,0.0,97,0.00,,,0.00,meteohub,2013-07-31 04:28:00,
2013-07-31 00:33:00,65.5,64.6,30.16,SE,143,0.0,0.0,97,0.00,,,0.00,meteohub,2013-07-31 04:33:00,
2013-07-31 00:38:00,65.5,64.9,30.15,SE,143,0.0,0.0,98,0.00,,,0.00,meteohub,2013-07-31 04:38:00,
2013-07-31 00:43:00,65.3,64.8,30.14,SE,143,0.0,0.0,98,0.00,,,0.00,meteohub,2013-07-31 04:43:00,
2013-07-31 00:48:00,65.3,64.8,30.14,SE,144,0.0,0.0,98,0.00,,,0.00,meteohub,2013-07-31 04:48:00,
2013-07-31 00:53:00,65.3,64.8,30.14,SE,143,0.0,0.0,98,0.00,,,0.00,meteohub,2013-07-31 04:53:00,
2013-07-31 00:58:00,65.5,64.9,30.14,SSE,163,0.0,0.0,98,0.00,,,0.00,meteohub,2013-07-31 04:58:00,
2013-07-31 01:03:00,65.5,64.9,30.14,SSE,163,0.0,0.0,98,0.00,,,0.00,meteohub,2013-07-31 05:03:00,
2013-07-31 01:08:00,65.7,65.1,30.14,SSE,160,0.0,0.0,98,0.00,,,0.00,meteohub,2013-07-31 05:08:00,
2013-07-31 01:13:00,65.7,65.1,30.14,SSE,160,0.0,0.0,98,0.00,,,0.00,meteohub,2013-07-31 05:13:00,
2013-07-31 01:18:00,65.7,65.1,30.14,SSE,161,0.0,0.0,98,0.00,,,0.00,meteohub,2013-07-31 05:18:00,
2013-07-31 01:23:00,65.7,65.1,30.14,NE,34,1.0,1.0,98,0.00,,,0.00,meteohub,2013-07-31 05:23:00,
2013-07-31 01:28:00,65.7,65.1,30.13,NNE,13,0.0,3.0,98,0.00,,,0.00,meteohub,2013-07-31 05:28:00,
2013-07-31 01:33:00,65.7,65.1,30.13,North,351,0.0,3.0,98,0.00,,,0.00,meteohub,2013-07-31 05:33:00,
2013-07-31 01:38:00,65.5,64.9,30.13,NNE,15,0.0,3.0,98,0.00,,,0.00,meteohub,2013-07-31 05:38:00,
2013-07-31 01:43:00,65.5,64.9,30.12,NNE,15,0.0,1.0,98,0.00,,,0.00,meteohub,2013-07-31 05:43:00,
2013-07-31 01:48:00,65.5,64.9,30.12,NNE,15,0.0,1.0,98,0.00,,,0.00,meteohub,2013-07-31 05:48:00,
2013-07-31 01:53:00,65.7,65.3,30.12,West,270,0.0,0.0,99,0.00,,,0.00,meteohub,2013-07-31 05:53:00,
2013-07-31 01:58:00,65.7,65.1,30.13,West,270,0.0,2.0,98,0.00,,,0.00,meteohub,2013-07-31 05:58:00,
2013-07-31 02:03:00,65.7,65.3,30.12,West,270,0.0,2.0,99,0.00,,,0.00,meteohub,2013-07-31 06:03:00,
2013-07-31 02:08:00,65.5,64.9,30.12,West,270,0.0,2.0,98,0.00,,,0.00,meteohub,2013-07-31 06:08:00,
2013-07-31 02:13:00,65.5,64.9,30.12,West,270,0.0,0.0,98,0.00,,,0.00,meteohub,2013-07-31 06:13:00,
2013-07-31 02:18:00,65.3,64.9,30.12,West,270,0.0,0.0,99,0.00,,,0.00,meteohub,2013-07-31 06:18:00,
2013-07-31 02:23:00,65.3,64.9,30.12,West,269,0.0,0.0,99,0.00,,,0.00,meteohub,2013-07-31 06:23:00,
2013-07-31 02:28:00,65.3,64.9,30.12,West,270,0.0,0.0,99,0.00,,,0.00,meteohub,2013-07-31 06:28:00,
2013-07-31 02:33:00,65.1,64.8,30.12,West,269,0.0,0.0,99,0.00,,,0.00,meteohub,2013-07-31 06:33:00,
2013-07-31 02:38:00,65.1,64.8,30.11,West,270,0.0,0.0,99,0.00,,,0.00,meteohub,2013-07-31 06:38:00,
2013-07-31 02:43:00,65.1,64.8,30.11,NW,326,0.0,0.0,99,0.00,,,0.00,meteohub,2013-07-31 06:43:00,
2013-07-31 02:48:00,65.3,64.9,30.11,NNW,327,0.0,1.0,99,0.01,,,0.01,meteohub,2013-07-31 06:48:00,
2013-07-31 02:53:00,65.3,64.9,30.11,NNW,328,0.0,1.0,99,0.01,,,0.01,meteohub,2013-07-31 06:53:00,
2013-07-31 02:58:00,65.3,64.9,30.12,NNW,327,0.0,1.0,99,0.01,,,0.01,meteohub,2013-07-31 06:58:00,
2013-07-31 03:03:00,65.5,65.1,30.11,NNW,327,0.0,0.0,99,0.01,,,0.01,meteohub,2013-07-31 07:03:00,
2013-07-31 03:08:00,65.3,64.9,30.12,NNW,327,0.0,0.0,99,0.01,,,0.01,meteohub,2013-07-31 07:08:00,
2013-07-31 03:13:00,65.1,64.8,30.12,NNW,327,0.0,0.0,99,0.02,,,0.02,meteohub,2013-07-31 07:13:00,
2013-07-31 03:18:00,65.1,64.8,30.11,NNW,328,0.0,0.0,99,0.02,,,0.02,meteohub,2013-07-31 07:18:00,
2013-07-31 03:24:00,65.1,64.8,30.11,NNW,327,0.0,0.0,99,0.02,,,0.02,meteohub,2013-07-31 07:24:00,
2013-07-31 03:29:00,65.1,64.8,30.11,NNW,327,0.0,0.0,99,0.03,,,0.03,meteohub,2013-07-31 07:29:00,
2013-07-31 03:34:00,65.5,65.1,30.11,SSW,203,0.0,0.0,99,0.03,,,0.03,meteohub,2013-07-31 07:34:00,
2013-07-31 03:39:00,65.5,65.1,30.11,SE,126,0.0,1.0,99,0.03,,,0.03,meteohub,2013-07-31 07:39:00,
2013-07-31 03:44:00,65.5,65.1,30.12,WNW,300,0.0,1.0,99,0.04,,,0.04,meteohub,2013-07-31 07:44:00,
2013-07-31 03:49:00,65.5,65.1,30.12,South,170,0.0,1.0,99,0.08,,,0.09,meteohub,2013-07-31 07:49:00,
2013-07-31 03:54:00,65.5,65.1,30.12,SW,232,0.0,1.0,99,0.10,,,0.11,meteohub,2013-07-31 07:54:00,
2013-07-31 03:59:00,65.5,65.1,30.12,NE,53,0.0,2.0,99,0.21,,,0.22,meteohub,2013-07-31 07:59:00,
2013-07-31 04:04:00,65.3,64.9,30.12,ENE,77,2.0,2.0,99,0.54,,,0.55,meteohub,2013-07-31 08:04:00,
2013-07-31 04:09:00,65.1,64.8,30.11,SW,217,1.0,2.0,99,0.62,,,0.64,meteohub,2013-07-31 08:09:00,
2013-07-31 04:14:00,65.1,64.8,30.11,SSW,200,0.0,2.0,99,0.73,,,0.75,meteohub,2013-07-31 08:14:00,
2013-07-31 04:19:00,64.9,64.6,30.11,NNW,348,0.0,2.0,99,0.74,,,0.76,meteohub,2013-07-31 08:19:00,
2013-07-31 04:24:00,64.9,64.6,30.11,NNW,348,0.0,2.0,99,0.74,,,0.76,meteohub,2013-07-31 08:24:00,
2013-07-31 04:29:00,64.0,64.0,30.12,WSW,249,3.0,3.0,100,0.75,,,0.78,meteohub,2013-07-31 08:29:00,
2013-07-31 04:34:00,64.0,64.0,30.10,WSW,249,3.0,4.0,100,0.76,,,0.79,meteohub,2013-07-31 08:34:00,
2013-07-31 07:49:00,64.2,64.2,30.12,North,-999,-999.0,-999.0,100,-99.99,,,0.79,meteohub,2013-07-31 11:49:00,
2013-07-31 07:54:00,64.2,64.2,30.12,North,-999,-999.0,-999.0,100,-99.99,,,0.79,meteohub,2013-07-31 11:54:00,
2013-07-31 07:59:00,64.2,64.2,30.12,West,263,0.0,-999.0,100,0.00,,,0.79,meteohub,2013-07-31 11:59:00,
2013-07-31 08:04:00,64.2,64.2,30.12,West,263,0.0,0.0,100,0.00,,,0.79,meteohub,2013-07-31 12:04:00,
2013-07-31 08:09:00,64.2,64.2,30.12,West,263,0.0,0.0,100,0.00,,,0.79,meteohub,2013-07-31 12:09:00,
2013-07-31 08:14:00,64.4,64.4,30.12,West,264,0.0,0.0,100,0.00,,,0.79,meteohub,2013-07-31 12:14:00,
2013-07-31 08:19:00,64.6,64.6,30.12,West,263,0.0,0.0,100,0.00,,,0.79,meteohub,2013-07-31 12:19:00,
2013-07-31 08:24:00,64.6,64.6,30.12,West,263,0.0,0.0,100,0.00,,,0.79,meteohub,2013-07-31 12:24:00,
2013-07-31 08:30:00,64.8,64.8,30.12,West,263,0.0,0.0,100,0.00,,,0.79,meteohub,2013-07-31 12:30:00,
2013-07-31 08:35:00,64.8,64.8,30.12,SE,135,0.0,0.0,100,0.00,,,0.79,meteohub,2013-07-31 12:35:00,
2013-07-31 08:40:00,64.8,64.8,30.11,SE,136,0.0,1.0,100,0.00,,,0.79,meteohub,2013-07-31 12:40:00,
2013-07-31 08:45:00,64.9,64.9,30.11,SE,136,0.0,1.0,100,0.00,,,0.79,meteohub,2013-07-31 12:45:00,
2013-07-31 08:50:00,64.9,64.9,30.11,SSE,150,0.0,1.0,100,0.00,,,0.79,meteohub,2013-07-31 12:50:00,
2013-07-31 08:55:00,65.1,65.1,30.11,NW,308,0.0,1.0,100,0.00,,,0.79,meteohub,2013-07-31 12:55:00,
2013-07-31 09:00:00,64.9,64.9,30.11,West,276,0.0,1.0,100,0.00,,,0.79,meteohub,2013-07-31 13:00:00,
2013-07-31 09:05:00,64.9,64.9,30.12,West,269,0.0,1.0,100,0.00,,,0.79,meteohub,2013-07-31 13:05:00,
2013-07-31 09:10:00,64.9,64.6,30.11,ENE,78,0.0,1.0,99,0.00,,,0.79,meteohub,2013-07-31 13:10:00,
2013-07-31 09:15:00,64.9,64.6,30.11,ESE,114,0.0,1.0,99,0.00,,,0.79,meteohub,2013-07-31 13:15:00,
2013-07-31 09:20:00,64.9,64.6,30.11,ESE,114,0.0,1.0,99,0.00,,,0.79,meteohub,2013-07-31 13:20:00,
2013-07-31 09:25:00,65.3,65.3,30.11,ESE,114,0.0,1.0,100,0.00,,,0.79,meteohub,2013-07-31 13:25:00,
2013-07-31 09:30:00,65.1,64.8,30.11,ESE,114,0.0,0.0,99,0.00,,,0.79,meteohub,2013-07-31 13:30:00,
2013-07-31 09:35:00,65.7,65.7,30.11,ESE,114,0.0,0.0,100,0.00,,,0.79,meteohub,2013-07-31 13:35:00,
2013-07-31 09:40:00,65.5,65.1,30.11,ESE,114,0.0,0.0,99,0.00,,,0.79,meteohub,2013-07-31 13:40:00,
2013-07-31 09:45:00,65.7,65.3,30.11,ESE,114,0.0,1.0,99,0.00,,,0.79,meteohub,2013-07-31 13:45:00,
2013-07-31 09:50:00,65.8,65.5,30.11,ESE,114,0.0,1.0,99,0.00,,,0.79,meteohub,2013-07-31 13:50:00,
2013-07-31 09:55:00,65.8,65.5,30.11,ESE,114,1.0,1.0,99,0.00,,,0.79,meteohub,2013-07-31 13:55:00,
2013-07-31 10:00:00,66.0,65.7,30.11,ESE,114,0.0,0.0,99,0.00,,,0.79,meteohub,2013-07-31 14:00:00,
2013-07-31 10:05:00,66.4,66.0,30.11,ESE,114,0.0,1.0,99,0.00,,,0.79,meteohub,2013-07-31 14:05:00,
2013-07-31 10:10:00,66.7,66.4,30.11,ESE,114,0.0,1.0,99,0.00,,,0.79,meteohub,2013-07-31 14:10:00,
2013-07-31 10:15:00,66.7,66.4,30.10,ESE,114,0.0,0.0,99,0.00,,,0.79,meteohub,2013-07-31 14:15:00,
2013-07-31 10:20:00,67.3,66.9,30.10,ESE,117,0.0,0.0,99,0.00,,,0.79,meteohub,2013-07-31 14:20:00,
2013-07-31 10:25:00,67.6,66.7,30.10,NW,314,0.0,0.0,97,0.00,,,0.79,meteohub,2013-07-31 14:25:00,
2013-07-31 10:30:00,67.8,66.9,30.10,West,266,0.0,0.0,97,0.00,,,0.79,meteohub,2013-07-31 14:30:00,
2013-07-31 10:35:00,68.4,67.1,30.10,West,266,0.0,2.0,96,0.00,,,0.79,meteohub,2013-07-31 14:35:00,
2013-07-31 10:40:00,68.4,66.9,30.10,NNW,348,0.0,1.0,95,0.00,,,0.79,meteohub,2013-07-31 14:40:00,
2013-07-31 10:45:00,68.9,67.1,30.10,West,266,0.0,1.0,94,0.00,,,0.79,meteohub,2013-07-31 14:45:00,
2013-07-31 10:50:00,69.4,67.6,30.09,SE,126,0.0,1.0,94,0.00,,,0.79,meteohub,2013-07-31 14:50:00,
2013-07-31 10:55:00,70.2,67.6,30.10,NNE,30,0.0,1.0,92,0.00,,,0.79,meteohub,2013-07-31 14:55:00,
2013-07-31 11:00:00,70.7,68.2,30.09,NE,37,0.0,1.0,92,0.00,,,0.79,meteohub,2013-07-31 15:00:00,
2013-07-31 11:05:00,71.1,68.4,30.09,WSW,257,0.0,1.0,91,0.00,,,0.79,meteohub,2013-07-31 15:05:00,
2013-07-31 11:10:00,70.9,68.2,30.09,SSW,210,0.0,1.0,91,0.00,,,0.79,meteohub,2013-07-31 15:10:00,
2013-07-31 11:15:00,70.9,68.2,30.09,SSW,210,0.0,1.0,91,0.00,,,0.79,meteohub,2013-07-31 15:15:00,
2013-07-31 11:20:00,71.4,68.7,30.08,SSW,207,0.0,1.0,91,0.00,,,0.79,meteohub,2013-07-31 15:20:00,
2013-07-31 11:25:00,72.1,68.4,30.08,ESE,103,0.0,3.0,88,0.00,,,0.79,meteohub,2013-07-31 15:25:00,
2013-07-31 11:30:00,72.0,68.2,30.08,West,266,0.0,3.0,88,0.00,,,0.79,meteohub,2013-07-31 15:30:00,
2013-07-31 11:35:00,72.0,68.9,30.08,West,267,0.0,3.0,90,0.00,,,0.79,meteohub,2013-07-31 15:35:00,
2013-07-31 11:40:00,72.3,68.9,30.08,West,261,0.0,2.0,89,0.00,,,0.79,meteohub,2013-07-31 15:40:00,
2013-07-31 11:45:00,72.7,69.3,30.07,SW,231,0.0,2.0,89,0.00,,,0.79,meteohub,2013-07-31 15:45:00,
2013-07-31 11:50:00,73.4,69.6,30.07,ESE,113,0.0,2.0,88,0.00,,,0.79,meteohub,2013-07-31 15:50:00,
2013-07-31 11:55:00,73.9,69.8,30.07,SE,139,3.0,3.0,87,0.00,,,0.79,meteohub,2013-07-31 15:55:00,
2013-07-31 12:00:00,74.1,69.6,30.07,SE,133,0.0,5.0,86,0.00,,,0.79,meteohub,2013-07-31 16:00:00,
2013-07-31 12:05:00,73.9,68.7,30.07,SSE,155,0.0,7.0,84,0.00,,,0.79,meteohub,2013-07-31 16:05:00,
2013-07-31 12:10:00,73.6,68.2,30.06,SE,143,3.0,8.0,83,0.00,,,0.79,meteohub,2013-07-31 16:10:00,
2013-07-31 12:16:00,73.4,68.2,30.07,East,95,1.0,8.0,84,0.00,,,0.79,meteohub,2013-07-31 16:16:00,
2013-07-31 12:21:00,73.2,68.2,30.07,SSW,204,1.0,8.0,84,0.00,,,0.79,meteohub,2013-07-31 16:21:00,
2013-07-31 12:26:00,73.2,68.4,30.07,WNW,292,0.0,5.0,85,0.00,,,0.79,meteohub,2013-07-31 16:26:00,
2013-07-31 12:31:00,73.0,68.2,30.06,West,277,1.0,5.0,85,0.00,,,0.79,meteohub,2013-07-31 16:31:00,
2013-07-31 12:36:00,72.7,68.5,30.06,West,273,0.0,2.0,87,0.00,,,0.79,meteohub,2013-07-31 16:36:00,
2013-07-31 12:41:00,72.7,68.9,30.06,West,271,0.0,1.0,88,0.00,,,0.79,meteohub,2013-07-31 16:41:00,
2013-07-31 12:46:00,72.5,67.8,30.06,ESE,115,1.0,4.0,85,0.00,,,0.79,meteohub,2013-07-31 16:46:00,
2013-07-31 12:51:00,72.3,67.6,30.06,SSE,165,1.0,4.0,85,0.00,,,0.79,meteohub,2013-07-31 16:51:00,
2013-07-31 12:56:00,72.1,68.4,30.06,East,91,0.0,5.0,88,0.00,,,0.79,meteohub,2013-07-31 16:56:00,
2013-07-31 13:01:00,72.1,68.4,30.06,East,82,0.0,5.0,88,0.00,,,0.79,meteohub,2013-07-31 17:01:00,
2013-07-31 13:06:00,72.5,67.8,30.06,SSE,150,0.0,4.0,85,0.00,,,0.79,meteohub,2013-07-31 17:06:00,
2013-07-31 13:11:00,72.9,68.7,30.06,North,350,0.0,1.0,87,0.00,,,0.79,meteohub,2013-07-31 17:11:00,
2013-07-31 13:16:00,72.7,68.5,30.06,NNW,338,0.0,4.0,87,0.00,,,0.79,meteohub,2013-07-31 17:16:00,
2013-07-31 13:22:00,72.1,67.6,30.06,NW,314,0.0,4.0,86,0.00,,,0.79,meteohub,2013-07-31 17:22:00,
2013-07-31 13:27:00,72.0,67.8,30.06,East,88,0.0,4.0,87,0.00,,,0.79,meteohub,2013-07-31 17:27:00,
2013-07-31 13:32:00,71.8,68.4,30.06,East,87,0.0,3.0,89,0.00,,,0.79,meteohub,2013-07-31 17:32:00,
2013-07-31 13:37:00,71.8,68.7,30.05,West,281,1.0,1.0,90,0.00,,,0.79,meteohub,2013-07-31 17:37:00,
2013-07-31 13:42:00,71.2,68.2,30.06,WNW,291,0.0,1.0,90,0.00,,,0.79,meteohub,2013-07-31 17:42:00,
2013-07-31 13:47:00,71.1,68.4,30.05,SW,217,0.0,1.0,91,0.00,,,0.79,meteohub,2013-07-31 17:47:00,
2013-07-31 13:52:00,71.1,68.4,30.05,WNW,293,0.0,1.0,91,0.00,,,0.79,meteohub,2013-07-31 17:52:00,
2013-07-31 13:57:00,71.1,68.5,30.05,WNW,301,0.0,1.0,92,0.00,,,0.79,meteohub,2013-07-31 17:57:00,
2013-07-31 14:02:00,71.2,68.7,30.05,WNW,283,0.0,2.0,92,0.00,,,0.79,meteohub,2013-07-31 18:02:00,
2013-07-31 14:07:00,71.2,68.7,30.04,West,260,1.0,3.0,92,0.00,,,0.79,meteohub,2013-07-31 18:07:00,
2013-07-31 14:12:00,71.2,68.7,30.04,WNW,298,0.0,3.0,92,0.00,,,0.79,meteohub,2013-07-31 18:12:00,
2013-07-31 14:17:00,71.2,68.7,30.04,West,278,0.0,3.0,92,0.00,,,0.79,meteohub,2013-07-31 18:17:00,
2013-07-31 14:22:00,71.2,69.4,30.04,WNW,285,0.0,2.0,94,0.01,,,0.80,meteohub,2013-07-31 18:22:00,
2013-07-31 14:27:00,71.4,68.9,30.04,SW,231,0.0,2.0,92,0.01,,,0.80,meteohub,2013-07-31 18:27:00,
2013-07-31 14:32:00,71.4,68.7,30.04,SSE,154,0.0,2.0,91,0.01,,,0.80,meteohub,2013-07-31 18:32:00,
2013-07-31 14:37:00,71.1,68.5,30.04,WSW,258,0.0,6.0,92,0.01,,,0.80,meteohub,2013-07-31 18:37:00,
2013-07-31 14:42:00,70.9,68.4,30.03,East,87,7.0,7.0,92,0.01,,,0.80,meteohub,2013-07-31 18:42:00,
2013-07-31 14:47:00,70.7,68.0,30.03,SE,139,1.0,7.0,91,0.01,,,0.80,meteohub,2013-07-31 18:47:00,
2013-07-31 14:52:00,70.3,66.9,30.03,SW,217,0.0,7.0,89,0.01,,,0.80,meteohub,2013-07-31 18:52:00,
2013-07-31 14:58:00,70.5,67.5,30.03,SE,143,0.0,7.0,90,0.01,,,0.80,meteohub,2013-07-31 18:58:00,
2013-07-31 15:03:00,71.4,68.4,30.03,ESE,103,0.0,6.0,90,0.01,,,0.80,meteohub,2013-07-31 19:03:00,
2013-07-31 15:08:00,72.5,68.0,30.02,NNE,30,0.0,4.0,86,0.01,,,0.80,meteohub,2013-07-31 19:08:00,
2013-07-31 15:13:00,73.0,68.0,30.02,East,83,0.0,1.0,84,0.01,,,0.80,meteohub,2013-07-31 19:13:00,
2013-07-31 15:18:00,73.4,68.2,30.02,WSW,247,0.0,3.0,84,0.01,,,0.80,meteohub,2013-07-31 19:18:00,
2013-07-31 15:23:00,73.0,68.0,30.02,East,97,0.0,3.0,84,0.00,,,0.80,meteohub,2013-07-31 19:23:00,
2013-07-31 15:28:00,72.9,68.0,30.02,SE,142,0.0,5.0,85,0.00,,,0.80,meteohub,2013-07-31 19:28:00,
2013-07-31 15:33:00,72.9,68.0,30.01,WNW,293,0.0,5.0,85,0.00,,,0.80,meteohub,2013-07-31 19:33:00,
2013-07-31 15:38:00,72.7,67.8,30.01,East,96,0.0,4.0,85,0.00,,,0.80,meteohub,2013-07-31 19:38:00,
2013-07-31 15:43:00,72.9,68.4,30.01,WNW,282,0.0,3.0,86,0.00,,,0.80,meteohub,2013-07-31 19:43:00,
2013-07-31 15:48:00,72.7,68.2,30.01,SSE,168,0.0,3.0,86,0.00,,,0.80,meteohub,2013-07-31 19:48:00,
2013-07-31 15:53:00,72.7,68.2,30.01,SSW,210,0.0,3.0,86,0.00,,,0.80,meteohub,2013-07-31 19:53:00,
2013-07-31 15:58:00,72.3,67.6,30.01,WNW,293,2.0,3.0,85,0.00,,,0.80,meteohub,2013-07-31 19:58:00,
2013-07-31 16:03:00,71.6,67.8,30.00,SE,134,1.0,3.0,88,0.00,,,0.80,meteohub,2013-07-31 20:03:00,
2013-07-31 16:08:00,71.1,68.0,30.01,North,8,0.0,3.0,90,0.00,,,0.80,meteohub,2013-07-31 20:08:00,
2013-07-31 16:13:00,70.3,67.6,30.00,West,278,0.0,3.0,91,0.00,,,0.80,meteohub,2013-07-31 20:13:00,
2013-07-31 16:18:00,70.2,67.6,30.00,NW,306,0.0,3.0,92,0.01,,,0.81,meteohub,2013-07-31 20:18:00,
2013-07-31 16:23:00,70.2,67.5,30.00,WSW,245,3.0,3.0,91,0.01,,,0.81,meteohub,2013-07-31 20:23:00,
2013-07-31 16:28:00,70.3,68.2,30.00,SSW,207,0.0,3.0,93,0.01,,,0.81,meteohub,2013-07-31 20:28:00,
2013-07-31 16:33:00,71.2,68.7,29.99,SW,223,0.0,3.0,92,0.01,,,0.81,meteohub,2013-07-31 20:33:00,
2013-07-31 16:38:00,72.3,69.3,29.99,SE,140,0.0,3.0,90,0.01,,,0.81,meteohub,2013-07-31 20:38:00,
2013-07-31 16:43:00,73.6,69.8,29.99,ESE,118,1.0,3.0,88,0.01,,,0.81,meteohub,2013-07-31 20:43:00,
2013-07-31 16:48:00,73.6,70.5,29.99,West,264,2.0,3.0,90,0.01,,,0.81,meteohub,2013-07-31 20:48:00,
2013-07-31 16:53:00,72.5,68.0,29.99,SE,144,2.0,4.0,86,0.01,,,0.81,meteohub,2013-07-31 20:53:00,
2013-07-31 16:58:00,72.7,68.5,29.98,SSE,160,0.0,6.0,87,0.01,,,0.81,meteohub,2013-07-31 20:58:00,
2013-07-31 17:03:00,72.9,68.4,29.98,NW,304,0.0,6.0,86,0.01,,,0.81,meteohub,2013-07-31 21:03:00,
2013-07-31 17:08:00,73.8,69.3,29.98,ENE,71,0.0,5.0,86,0.01,,,0.81,meteohub,2013-07-31 21:08:00,
2013-07-31 17:13:00,74.1,68.9,29.97,SE,129,0.0,2.0,84,0.00,,,0.81,meteohub,2013-07-31 21:13:00,
2013-07-31 17:18:00,74.5,69.3,29.97,West,276,2.0,2.0,84,0.00,,,0.81,meteohub,2013-07-31 21:18:00,
2013-07-31 17:23:00,74.8,69.6,29.97,West,269,0.0,4.0,84,0.00,,,0.81,meteohub,2013-07-31 21:23:00,
2013-07-31 17:28:00,75.0,69.4,29.97,WSW,239,1.0,4.0,83,0.00,,,0.81,meteohub,2013-07-31 21:28:00,
2013-07-31 17:33:00,74.8,69.3,29.97,South,181,0.0,4.0,83,0.00,,,0.81,meteohub,2013-07-31 21:33:00,
2013-07-31 17:38:00,75.4,69.8,29.96,ENE,76,0.0,6.0,83,0.00,,,0.81,meteohub,2013-07-31 21:38:00,
2013-07-31 17:43:00,75.7,68.0,29.96,SE,125,3.0,6.0,77,0.00,,,0.81,meteohub,2013-07-31 21:43:00,
2013-07-31 17:48:00,75.9,68.2,29.96,ESE,119,0.0,7.0,77,0.00,,,0.81,meteohub,2013-07-31 21:48:00,
2013-07-31 17:53:00,76.5,68.0,29.96,NNW,340,0.0,7.0,75,0.00,,,0.81,meteohub,2013-07-31 21:53:00,
2013-07-31 17:58:00,76.8,68.7,29.96,NE,46,1.0,7.0,76,0.00,,,0.81,meteohub,2013-07-31 21:58:00,
2013-07-31 18:03:00,76.8,68.4,29.96,WNW,293,0.0,4.0,75,0.00,,,0.81,meteohub,2013-07-31 22:03:00,
2013-07-31 18:08:00,76.5,68.7,29.95,SE,124,7.0,7.0,77,0.00,,,0.81,meteohub,2013-07-31 22:08:00,
2013-07-31 18:13:00,75.6,68.2,29.95,SE,142,0.0,4.0,78,0.00,,,0.81,meteohub,2013-07-31 22:13:00,
2013-07-31 18:18:00,75.4,68.0,29.95,WSW,246,0.0,8.0,78,0.00,,,0.81,meteohub,2013-07-31 22:18:00,
2013-07-31 18:23:00,75.0,67.6,29.94,SSE,155,0.0,8.0,78,0.00,,,0.81,meteohub,2013-07-31 22:23:00,
2013-07-31 18:28:00,75.4,68.0,29.95,ESE,111,0.0,4.0,78,0.00,,,0.81,meteohub,2013-07-31 22:28:00,
2013-07-31 18:33:00,75.4,68.7,29.94,NE,44,0.0,4.0,80,0.00,,,0.81,meteohub,2013-07-31 22:33:00,
2013-07-31 18:38:00,75.7,68.0,29.94,SSW,211,0.0,3.0,77,0.00,,,0.81,meteohub,2013-07-31 22:38:00,
2013-07-31 18:43:00,75.6,67.8,29.94,ENE,78,0.0,3.0,77,0.00,,,0.81,meteohub,2013-07-31 22:43:00,
2013-07-31 18:49:00,75.6,68.5,29.94,NE,56,0.0,3.0,79,0.00,,,0.81,meteohub,2013-07-31 22:49:00,
2013-07-31 18:54:00,75.7,68.4,29.94,West,273,0.0,2.0,78,0.00,,,0.81,meteohub,2013-07-31 22:54:00,
2013-07-31 18:59:00,75.6,68.5,29.94,WSW,256,0.0,2.0,79,0.00,,,0.81,meteohub,2013-07-31 22:59:00,
2013-07-31 19:04:00,75.6,68.9,29.94,NW,313,0.0,2.0,80,0.00,,,0.81,meteohub,2013-07-31 23:04:00,
2013-07-31 19:09:00,74.8,69.3,29.95,North,351,0.0,2.0,83,0.00,,,0.81,meteohub,2013-07-31 23:09:00,
2013-07-31 19:14:00,73.8,68.5,29.95,SSE,153,2.0,2.0,84,0.00,,,0.81,meteohub,2013-07-31 23:14:00,
2013-07-31 19:19:00,72.9,68.4,29.95,South,184,0.0,2.0,86,0.00,,,0.81,meteohub,2013-07-31 23:19:00,
2013-07-31 19:24:00,72.0,67.8,29.95,SE,126,1.0,2.0,87,0.00,,,0.81,meteohub,2013-07-31 23:24:00,
2013-07-31 19:29:00,71.6,67.8,29.95,SE,141,0.0,3.0,88,0.00,,,0.81,meteohub,2013-07-31 23:29:00,
2013-07-31 19:34:00,71.4,68.0,29.95,ESE,119,1.0,4.0,89,0.00,,,0.81,meteohub,2013-07-31 23:34:00,
2013-07-31 19:39:00,71.2,67.8,29.96,SSE,158,0.0,4.0,89,0.00,,,0.81,meteohub,2013-07-31 23:39:00,
2013-07-31 19:44:00,71.1,67.6,29.96,SE,134,1.0,4.0,89,0.00,,,0.81,meteohub,2013-07-31 23:44:00,
2013-07-31 19:49:00,70.7,67.6,29.96,SSE,155,0.0,3.0,90,0.00,,,0.81,meteohub,2013-07-31 23:49:00,
2013-07-31 19:54:00,70.3,67.3,29.97,SE,127,0.0,3.0,90,0.00,,,0.81,meteohub,2013-07-31 23:54:00,
2013-07-31 19:59:00,70.2,67.5,29.97,SSE,150,1.0,4.0,91,0.00,,,0.81,meteohub,2013-07-31 23:59:00,
2013-07-31 20:04:00,70.0,67.3,29.97,ESE,107,1.0,4.0,91,0.00,,,0.81,meteohub,2013-08-01 00:04:00,
2013-07-31 20:09:00,69.8,67.3,29.97,SE,141,2.0,4.0,92,0.00,,,0.00,meteohub,2013-08-01 00:09:00,
2013-07-31 20:14:00,69.8,67.3,29.98,SE,143,0.0,4.0,92,0.00,,,0.00,meteohub,2013-08-01 00:14:00,
2013-07-31 20:19:00,69.6,67.5,29.98,SSE,149,4.0,4.0,93,0.00,,,0.00,meteohub,2013-08-01 00:19:00,
2013-07-31 20:24:00,69.4,67.3,29.98,SE,139,0.0,2.0,93,0.00,,,0.00,meteohub,2013-08-01 00:24:00,
2013-07-31 20:29:00,69.3,67.1,29.98,ESE,108,0.0,4.0,93,0.00,,,0.00,meteohub,2013-08-01 00:29:00,
2013-07-31 20:34:00,69.3,67.1,29.98,SE,134,1.0,4.0,93,0.00,,,0.00,meteohub,2013-08-01 00:34:00,
2013-07-31 20:39:00,69.1,67.3,29.98,SE,136,0.0,3.0,94,0.00,,,0.00,meteohub,2013-08-01 00:39:00,
2013-07-31 20:44:00,69.1,67.3,29.98,SSE,152,1.0,4.0,94,0.00,,,0.00,meteohub,2013-08-01 00:44:00,
2013-07-31 20:49:00,68.9,67.1,29.98,SE,138,1.0,4.0,94,0.00,,,0.00,meteohub,2013-08-01 00:49:00,
2013-07-31 20:54:00,68.7,67.3,29.98,SE,143,2.0,4.0,95,0.00,,,0.00,meteohub,2013-08-01 00:54:00,
2013-07-31 20:59:00,68.5,67.1,29.98,SSE,160,2.0,3.0,95,0.00,,,0.00,meteohub,2013-08-01 00:59:00,
2013-07-31 21:03:00,68.5,67.1,29.98,SE,142,0.0,3.0,95,0.00,,,0.00,meteohub,2013-08-01 01:03:00,
2013-07-31 21:07:00,68.5,67.1,29.98,SE,142,0.0,3.0,95,0.00,,,0.00,meteohub,2013-08-01 01:07:00,
2013-07-31 21:12:00,68.4,66.9,29.98,SE,124,0.0,3.0,95,0.00,,,0.00,meteohub,2013-08-01 01:12:00,
2013-07-31 21:17:00,68.4,67.1,29.98,SSE,165,0.0,3.0,96,0.00,,,0.00,meteohub,2013-08-01 01:17:00,
2013-07-31 21:22:00,68.4,67.1,29.98,SE,142,0.0,3.0,96,0.00,,,0.00,meteohub,2013-08-01 01:22:00,
2013-07-31 21:27:00,68.4,67.1,29.98,SSW,194,0.0,3.0,96,0.00,,,0.00,meteohub,2013-08-01 01:27:00,
2013-07-31 21:32:00,68.2,66.9,29.98,SSW,212,0.0,6.0,96,0.00,,,0.00,meteohub,2013-08-01 01:32:00,
2013-07-31 21:37:00,68.2,67.3,29.98,SSW,213,0.0,6.0,97,0.01,,,0.01,meteohub,2013-08-01 01:37:00,
2013-07-31 21:42:00,68.0,67.1,29.98,SSW,213,0.0,6.0,97,0.01,,,0.01,meteohub,2013-08-01 01:42:00,
2013-07-31 21:47:00,67.8,66.9,29.99,WNW,301,0.0,1.0,97,0.02,,,0.02,meteohub,2013-08-01 01:47:00,
2013-07-31 21:52:00,67.8,67.3,29.99,WNW,298,0.0,1.0,98,0.02,,,0.02,meteohub,2013-08-01 01:52:00,
2013-07-31 21:57:00,67.8,67.3,29.99,WNW,299,0.0,1.0,98,0.02,,,0.02,meteohub,2013-08-01 01:57:00,
2013-07-31 22:02:00,67.6,67.1,29.98,WNW,300,0.0,1.0,98,0.02,,,0.02,meteohub,2013-08-01 02:02:00,
2013-07-31 22:07:00,67.6,67.1,29.99,WNW,299,0.0,0.0,98,0.02,,,0.02,meteohub,2013-08-01 02:07:00,
2013-07-31 22:13:00,67.6,67.1,29.99,WSW,243,0.0,0.0,98,0.02,,,0.02,meteohub,2013-08-01 02:13:00,
2013-07-31 22:18:00,67.6,67.1,29.98,WSW,243,0.0,1.0,98,0.02,,,0.02,meteohub,2013-08-01 02:18:00,
2013-07-31 22:23:00,67.6,67.1,29.98,WSW,243,0.0,1.0,98,0.02,,,0.02,meteohub,2013-08-01 02:23:00,
2013-07-31 22:28:00,67.6,67.1,29.98,WSW,243,0.0,0.0,98,0.02,,,0.02,meteohub,2013-08-01 02:28:00,
2013-07-31 22:33:00,67.5,66.9,29.98,WSW,243,0.0,0.0,98,0.01,,,0.02,meteohub,2013-08-01 02:33:00,
2013-07-31 22:38:00,67.5,67.1,29.99,ESE,119,0.0,0.0,99,0.01,,,0.02,meteohub,2013-08-01 02:38:00,
2013-07-31 22:43:00,67.5,67.1,29.99,SE,142,0.0,1.0,99,0.00,,,0.02,meteohub,2013-08-01 02:43:00,
2013-07-31 22:48:00,67.5,67.1,29.99,SE,142,0.0,1.0,99,0.00,,,0.02,meteohub,2013-08-01 02:48:00,
2013-07-31 22:53:00,67.5,67.1,29.99,SE,139,0.0,1.0,99,0.00,,,0.02,meteohub,2013-08-01 02:53:00,
2013-07-31 22:58:00,67.5,67.1,29.99,SE,140,0.0,1.0,99,0.00,,,0.02,meteohub,2013-08-01 02:58:00,
2013-07-31 23:03:00,67.5,67.1,29.99,SSE,159,0.0,4.0,99,0.00,,,0.02,meteohub,2013-08-01 03:03:00,
2013-07-31 23:08:00,67.5,67.1,29.98,SSE,159,0.0,4.0,99,0.00,,,0.02,meteohub,2013-08-01 03:08:00,
2013-07-31 23:13:00,67.5,67.1,29.98,SSE,159,0.0,4.0,99,0.00,,,0.02,meteohub,2013-08-01 03:13:00,
2013-07-31 23:18:00,67.5,67.1,29.98,SSE,166,0.0,1.0,99,0.00,,,0.02,meteohub,2013-08-01 03:18:00,
2013-07-31 23:23:00,67.5,67.1,29.98,SSE,166,0.0,3.0,99,0.00,,,0.02,meteohub,2013-08-01 03:23:00,
2013-07-31 23:28:00,67.5,67.1,29.98,SSE,167,0.0,3.0,99,0.00,,,0.02,meteohub,2013-08-01 03:28:00,
2013-07-31 23:33:00,67.5,67.1,29.98,South,169,0.0,3.0,99,0.00,,,0.02,meteohub,2013-08-01 03:33:00,
2013-07-31 23:38:00,67.5,67.1,29.98,SW,221,0.0,1.0,99,0.00,,,0.02,meteohub,2013-08-01 03:38:00,
2013-07-31 23:43:00,67.5,67.1,29.98,SSW,210,0.0,1.0,99,0.00,,,0.02,meteohub,2013-08-01 03:43:00,
2013-07-31 23:48:00,67.3,66.9,29.97,SE,127,0.0,1.0,99,0.00,,,0.02,meteohub,2013-08-01 03:48:00,
2013-07-31 23:53:00,67.3,66.9,29.97,SSE,149,0.0,1.0,99,0.00,,,0.02,meteohub,2013-08-01 03:53:00,
2013-07-31 23:58:00,67.3,66.9,29.97,SSE,154,0.0,2.0,99,0.00,,,0.02,meteohub,2013-08-01 03:58:00,